createdAt,value
2018-07-17T00:01:36.370Z,99.90
2018-07-17T00:04:04.145Z,99.90
2018-07-17T00:06:32.095Z,99.90
2018-07-17T00:08:59.708Z,99.90
2018-07-17T00:11:27.292Z,99.90
2018-07-17T00:13:54.877Z,99.90
2018-07-17T00:16:22.438Z,99.90
2018-07-17T00:18:50.061Z,99.90
2018-07-17T00:21:17.848Z,99.90
2018-07-17T00:23:45.404Z,99.90
2018-07-17T00:26:13.292Z,99.90
2018-07-17T00:28:40.800Z,99.90
2018-07-17T00:31:08.366Z,99.90
2018-07-17T00:33:36.125Z,99.90
2018-07-17T00:36:03.707Z,99.90
2018-07-17T00:38:31.315Z,99.90
2018-07-17T00:40:58.972Z,99.90
2018-07-17T00:43:26.772Z,99.90
2018-07-17T00:45:54.363Z,99.90
2018-07-17T00:48:21.932Z,99.90
2018-07-17T00:50:49.507Z,99.90
2018-07-17T00:53:17.232Z,99.90
2018-07-17T00:55:44.958Z,99.90
2018-07-17T00:58:12.494Z,99.90
2018-07-17T01:00:45.512Z,99.90
2018-07-17T01:05:52.630Z,99.90
2018-07-17T01:08:25.919Z,99.90
2018-07-17T01:14:14.315Z,99.90
2018-07-17T01:16:41.985Z,99.90
2018-07-17T01:19:09.633Z,99.90
2018-07-17T01:21:37.839Z,99.90
2018-07-17T01:24:05.574Z,99.90
2018-07-17T01:26:33.173Z,99.90
2018-07-17T01:29:00.777Z,99.90
2018-07-17T01:33:55.900Z,99.90
2018-07-17T01:36:23.495Z,99.90
2018-07-17T01:38:51.097Z,99.90
2018-07-17T01:41:18.789Z,99.90
2018-07-17T01:43:46.423Z,99.90
2018-07-17T01:46:14.018Z,99.90
2018-07-17T01:48:41.592Z,99.90
2018-07-17T01:51:09.180Z,99.90
2018-07-17T01:53:39.413Z,99.90
2018-07-17T01:56:07.337Z,99.90
2018-07-17T01:58:47.433Z,99.90
2018-07-17T02:01:15.005Z,99.90
2018-07-17T02:03:42.752Z,99.90
2018-07-17T02:06:10.354Z,99.90
2018-07-17T02:08:39.024Z,99.90
2018-07-17T02:11:06.701Z,99.90
2018-07-17T02:13:34.270Z,99.90
2018-07-17T02:16:01.862Z,99.90
2018-07-17T02:18:29.436Z,99.90
2018-07-17T02:20:57.187Z,99.90
2018-07-17T02:23:24.744Z,99.90
2018-07-17T02:25:54.499Z,99.90
2018-07-17T02:28:22.089Z,99.90
2018-07-17T02:30:49.698Z,99.90
2018-07-17T02:33:17.557Z,99.90
2018-07-17T02:35:45.209Z,99.90
2018-07-17T02:38:12.827Z,99.90
2018-07-17T02:43:07.994Z,99.90
2018-07-17T02:45:35.589Z,99.90
2018-07-17T02:48:03.213Z,99.90
2018-07-17T02:50:30.803Z,99.90
2018-07-17T02:52:58.613Z,99.90
2018-07-17T02:57:53.861Z,99.90
2018-07-17T03:00:21.503Z,99.90
2018-07-17T03:02:49.104Z,99.90
2018-07-17T03:05:16.664Z,99.90
2018-07-17T03:07:44.340Z,99.90
2018-07-17T03:10:11.948Z,99.90
2018-07-17T03:12:39.603Z,99.90
2018-07-17T03:15:07.273Z,99.90
2018-07-17T03:17:34.955Z,99.90
2018-07-17T03:20:02.540Z,99.90
2018-07-17T03:22:30.172Z,99.90
2018-07-17T03:24:58.006Z,99.90
2018-07-17T03:27:25.597Z,99.90
2018-07-17T03:32:20.760Z,99.90
2018-07-17T03:34:48.332Z,99.90
2018-07-17T03:37:16.015Z,99.90
2018-07-17T03:39:43.574Z,99.90
2018-07-17T03:42:11.246Z,99.90
2018-07-17T03:44:38.942Z,99.90
2018-07-17T03:47:06.553Z,99.90
2018-07-17T03:49:34.165Z,99.90
2018-07-17T03:52:01.771Z,99.90
2018-07-17T03:54:29.361Z,99.90
2018-07-17T03:56:56.983Z,99.90
2018-07-17T03:59:24.572Z,99.90
2018-07-17T04:01:52.306Z,99.90
2018-07-17T04:04:20.226Z,99.90
2018-07-17T04:06:47.805Z,99.90
2018-07-17T04:09:15.745Z,99.90
2018-07-17T04:11:43.364Z,99.90
2018-07-17T04:14:10.964Z,99.90
2018-07-17T04:16:45.023Z,99.90
2018-07-17T04:19:13.095Z,99.90
2018-07-17T04:21:40.674Z,99.90
2018-07-17T04:24:08.601Z,99.90
2018-07-17T04:26:36.481Z,99.90
2018-07-17T04:29:04.645Z,99.90
2018-07-17T04:31:32.319Z,99.90
2018-07-17T04:33:59.914Z,99.90
2018-07-17T04:36:27.572Z,99.90
2018-07-17T04:38:55.214Z,99.90
2018-07-17T04:43:50.402Z,99.90
2018-07-17T04:46:18.973Z,99.90
2018-07-17T04:48:46.571Z,99.90
2018-07-17T04:51:14.589Z,99.90
2018-07-17T04:53:42.233Z,99.90
2018-07-17T04:56:09.817Z,99.90
2018-07-17T04:58:37.480Z,99.90
2018-07-17T05:01:08.695Z,99.90
2018-07-17T05:03:36.373Z,99.90
2018-07-17T05:06:04.193Z,99.90
2018-07-17T05:08:31.810Z,99.90
2018-07-17T05:10:59.413Z,99.90
2018-07-17T05:13:27.348Z,99.90
2018-07-17T05:15:54.995Z,99.90
2018-07-17T05:18:22.693Z,99.90
2018-07-17T05:20:50.435Z,99.90
2018-07-17T05:23:18.056Z,99.90
2018-07-17T05:28:13.303Z,99.90
2018-07-17T05:30:40.941Z,99.90
2018-07-17T05:33:08.569Z,99.90
2018-07-17T05:35:36.257Z,99.90
2018-07-17T05:38:03.839Z,99.90
2018-07-17T05:40:31.496Z,99.90
2018-07-17T05:42:59.132Z,99.90
2018-07-17T05:45:26.776Z,99.90
2018-07-17T05:47:54.515Z,99.90
2018-07-17T05:52:49.649Z,99.90
2018-07-17T05:55:17.433Z,99.90
2018-07-17T05:57:45.059Z,99.90
2018-07-17T06:00:12.687Z,99.90
2018-07-17T06:05:07.880Z,99.90
2018-07-17T06:07:35.896Z,99.90
2018-07-17T06:10:03.753Z,99.90
2018-07-17T06:12:31.432Z,99.90
2018-07-17T06:14:59.033Z,99.90
2018-07-17T06:17:26.632Z,99.90
2018-07-17T06:19:54.308Z,99.90
2018-07-17T06:24:49.529Z,99.90
2018-07-17T06:27:17.480Z,99.90
2018-07-17T06:29:45.074Z,99.90
2018-07-17T06:32:12.681Z,99.90
2018-07-17T06:34:41.300Z,99.90
2018-07-17T06:37:08.921Z,99.90
2018-07-17T06:39:38.814Z,99.90
2018-07-17T06:42:06.474Z,99.90
2018-07-17T06:44:34.176Z,99.90
2018-07-17T06:47:01.774Z,99.90
2018-07-17T06:49:29.349Z,99.90
2018-07-17T06:51:56.972Z,99.90
2018-07-17T06:54:24.585Z,99.90
2018-07-17T06:56:52.236Z,99.90
2018-07-17T06:59:19.837Z,99.90
2018-07-17T07:01:47.442Z,99.90
2018-07-17T07:04:15.049Z,99.90
2018-07-17T07:06:42.655Z,99.90
2018-07-17T07:09:10.568Z,99.90
2018-07-17T07:11:38.434Z,99.90
2018-07-17T07:14:06.208Z,99.90
2018-07-17T07:16:33.849Z,99.90
2018-07-17T07:19:01.641Z,99.60
2018-07-17T07:21:30.374Z,98.00
2018-07-17T07:23:58.400Z,97.90
2018-07-17T07:26:25.989Z,98.70
2018-07-17T07:28:53.649Z,98.10
2018-07-17T07:31:21.280Z,96.80
2018-07-17T07:33:49.046Z,96.20
2018-07-17T07:36:16.732Z,96.20
2018-07-17T07:38:44.431Z,96.30
2018-07-17T07:41:12.062Z,96.20
2018-07-17T07:43:39.684Z,94.60
2018-07-17T07:46:07.257Z,93.90
2018-07-17T07:48:34.893Z,92.10
2018-07-17T07:51:02.598Z,91.00
2018-07-17T07:53:30.216Z,88.60
2018-07-17T07:55:58.059Z,90.20
2018-07-17T07:58:25.998Z,89.50
2018-07-17T08:00:53.659Z,84.60
2018-07-17T08:03:21.316Z,83.80
2018-07-17T08:05:48.997Z,80.80
2018-07-17T08:08:16.689Z,80.70
2018-07-17T08:13:12.001Z,78.00
2018-07-17T08:15:39.649Z,79.40
2018-07-17T08:18:07.590Z,78.80
2018-07-17T08:20:35.205Z,76.60
2018-07-17T08:25:30.672Z,69.40
2018-07-17T08:27:58.560Z,68.30
2018-07-17T08:30:26.218Z,62.10
2018-07-17T08:32:54.093Z,63.30
2018-07-17T08:35:21.792Z,59.60
2018-07-17T08:40:16.996Z,57.90
2018-07-17T08:42:44.605Z,57.50
2018-07-17T08:45:12.341Z,53.80
2018-07-17T08:47:39.994Z,50.50
2018-07-17T08:50:07.609Z,50.50
2018-07-17T08:52:35.341Z,49.80
2018-07-17T08:55:03.038Z,51.60
2018-07-17T08:57:30.661Z,51.30
2018-07-17T08:59:58.353Z,51.60
2018-07-17T09:02:25.937Z,46.50
2018-07-17T09:04:53.509Z,46.10
2018-07-17T09:07:21.116Z,47.30
2018-07-17T09:09:48.706Z,46.20
2018-07-17T09:12:16.353Z,45.70
2018-07-17T09:14:44.021Z,45.00
2018-07-17T09:17:12.000Z,42.40
2018-07-17T09:19:39.589Z,41.20
2018-07-17T09:22:07.196Z,39.00
2018-07-17T09:24:34.906Z,39.80
2018-07-17T09:27:02.550Z,42.80
2018-07-17T09:29:30.141Z,41.30
2018-07-17T09:31:57.748Z,41.70
2018-07-17T09:34:25.381Z,36.30
2018-07-17T09:36:52.983Z,37.80
2018-07-17T09:41:48.149Z,37.50
2018-07-17T09:44:15.785Z,38.70
2018-07-17T09:46:43.406Z,37.40
2018-07-17T09:49:11.218Z,36.30
2018-07-17T09:51:39.983Z,37.30
2018-07-17T09:54:09.118Z,38.10
2018-07-17T09:56:36.913Z,35.60
2018-07-17T09:59:04.549Z,38.90
2018-07-17T10:01:37.766Z,36.60
2018-07-17T10:04:05.427Z,34.80
2018-07-17T10:06:33.064Z,33.80
2018-07-17T10:09:00.673Z,33.50
2018-07-17T10:11:29.168Z,34.50
2018-07-17T10:13:56.804Z,35.80
2018-07-17T10:16:24.396Z,35.10
2018-07-17T10:18:52.021Z,34.80
2018-07-17T10:21:19.634Z,32.40
2018-07-17T10:23:47.214Z,33.00
2018-07-17T10:26:14.979Z,33.80
2018-07-17T10:28:42.557Z,36.10
2018-07-17T10:31:10.216Z,35.80
2018-07-17T10:33:37.960Z,37.50
2018-07-17T10:36:05.602Z,38.60
2018-07-17T10:38:33.252Z,39.30
2018-07-17T10:41:00.820Z,38.50
2018-07-17T10:43:28.403Z,39.30
2018-07-17T10:45:56.016Z,32.70
2018-07-17T10:48:23.899Z,34.30
2018-07-17T10:50:51.646Z,31.60
2018-07-17T10:53:19.232Z,30.80
2018-07-17T10:55:46.841Z,30.30
2018-07-17T10:58:14.456Z,32.00
2018-07-17T11:00:42.018Z,31.90
2018-07-17T11:05:37.441Z,33.20
2018-07-17T11:08:05.093Z,31.50
2018-07-17T11:13:00.377Z,34.50
2018-07-17T11:15:28.088Z,34.80
2018-07-17T11:20:23.265Z,33.10
2018-07-17T11:22:50.869Z,32.80
2018-07-17T11:25:18.942Z,33.10
2018-07-17T11:27:46.580Z,32.70
2018-07-17T11:30:14.204Z,33.40
2018-07-17T11:32:41.974Z,34.60
2018-07-17T11:35:09.618Z,36.80
2018-07-17T11:37:37.412Z,35.40
2018-07-17T11:40:05.567Z,30.90
2018-07-17T11:42:33.141Z,30.50
2018-07-17T11:45:00.737Z,33.60
2018-07-17T11:47:28.360Z,35.70
2018-07-17T11:49:55.964Z,33.90
2018-07-17T11:52:23.585Z,30.40
2018-07-17T11:54:51.437Z,32.70
2018-07-17T11:57:19.260Z,30.60
2018-07-17T11:59:46.930Z,33.00
2018-07-17T12:02:14.601Z,30.30
2018-07-17T12:04:42.214Z,31.10
2018-07-17T12:07:10.157Z,31.40
2018-07-17T12:09:38.441Z,31.20
2018-07-17T12:12:07.359Z,29.20
2018-07-17T12:14:35.044Z,31.80
2018-07-17T12:17:02.677Z,29.50
2018-07-17T12:19:30.312Z,29.60
2018-07-17T12:21:57.950Z,27.50
2018-07-17T12:24:25.555Z,28.50
2018-07-17T12:26:53.160Z,30.70
2018-07-17T12:29:20.808Z,30.90
2018-07-17T12:31:48.532Z,29.30
2018-07-17T12:34:16.104Z,27.60
2018-07-17T12:36:43.690Z,29.20
2018-07-17T12:39:12.184Z,29.10
2018-07-17T12:41:39.944Z,30.50
2018-07-17T12:44:07.825Z,32.20
2018-07-17T12:46:35.524Z,29.70
2018-07-17T12:49:03.300Z,28.30
2018-07-17T12:51:31.139Z,26.70
2018-07-17T12:53:59.067Z,28.80
2018-07-17T12:56:26.766Z,27.50
2018-07-17T12:58:54.872Z,27.20
2018-07-17T13:01:23.431Z,29.00
2018-07-17T13:03:51.025Z,29.70
2018-07-17T13:06:18.641Z,32.10
2018-07-17T13:08:46.315Z,30.40
2018-07-17T13:11:13.925Z,29.70
2018-07-17T13:13:41.558Z,28.30
2018-07-17T13:16:09.228Z,28.70
2018-07-17T13:18:36.879Z,28.90
2018-07-17T13:21:04.485Z,29.50
2018-07-17T13:25:59.816Z,30.20
2018-07-17T13:33:22.537Z,29.90
2018-07-17T13:35:51.191Z,32.50
2018-07-17T13:38:18.973Z,29.00
2018-07-17T13:40:46.549Z,29.30
2018-07-17T13:43:14.132Z,28.70
2018-07-17T13:45:41.769Z,31.90
2018-07-17T13:48:09.373Z,34.20
2018-07-17T13:53:05.276Z,32.30
2018-07-17T13:55:33.824Z,30.60
2018-07-17T13:58:01.383Z,32.10
2018-07-17T14:00:29.040Z,33.60
2018-07-17T14:02:56.609Z,33.00
2018-07-17T14:07:51.752Z,35.80
2018-07-17T14:10:19.329Z,32.80
2018-07-17T14:12:46.967Z,31.60
2018-07-17T14:15:14.570Z,31.60
2018-07-17T14:17:42.671Z,32.70
2018-07-17T14:22:55.880Z,35.20
2018-07-17T14:25:23.774Z,33.70
2018-07-17T14:27:51.396Z,31.40
2018-07-17T14:30:19.039Z,34.00
2018-07-17T14:32:46.728Z,34.50
2018-07-17T14:35:14.340Z,35.50
2018-07-17T14:37:42.030Z,35.10
2018-07-17T14:40:09.762Z,34.20
2018-07-17T14:42:37.409Z,37.10
2018-07-17T14:45:05.421Z,36.60
2018-07-17T14:47:32.996Z,36.60
2018-07-17T14:50:00.789Z,35.30
2018-07-17T14:52:28.398Z,36.10
2018-07-17T14:54:59.709Z,36.30
2018-07-17T14:57:27.450Z,38.00
2018-07-17T14:59:55.397Z,38.50
2018-07-17T15:02:23.059Z,36.10
2018-07-17T15:04:51.313Z,37.40
2018-07-17T15:07:19.445Z,36.00
2018-07-17T15:09:47.169Z,36.80
2018-07-17T15:12:14.780Z,34.50
2018-07-17T15:14:42.396Z,36.00
2018-07-17T15:17:10.123Z,34.00
2018-07-17T15:19:37.818Z,34.80
2018-07-17T15:22:08.861Z,35.80
2018-07-17T15:24:36.479Z,34.50
2018-07-17T15:27:04.320Z,33.90
2018-07-17T15:29:31.936Z,34.50
2018-07-17T15:31:59.605Z,33.60
2018-07-17T15:34:27.397Z,35.20
2018-07-17T15:36:54.997Z,34.50
2018-07-17T15:39:22.608Z,35.80
2018-07-17T15:41:50.810Z,36.50
2018-07-17T15:44:18.427Z,36.40
2018-07-17T15:46:46.060Z,37.10
2018-07-17T15:49:13.641Z,37.30
2018-07-17T15:51:41.360Z,37.10
2018-07-17T15:54:08.943Z,37.20
2018-07-17T15:56:36.525Z,38.00
2018-07-17T15:59:04.226Z,37.20
2018-07-17T16:01:31.840Z,36.80
2018-07-17T16:03:59.419Z,36.50
2018-07-17T16:06:27.096Z,35.90
2018-07-17T16:08:54.675Z,37.20
2018-07-17T16:11:22.376Z,36.90
2018-07-17T16:13:50.218Z,38.40
2018-07-17T16:16:17.779Z,38.40
2018-07-17T16:18:45.419Z,40.40
2018-07-17T16:21:13.105Z,41.40
2018-07-17T16:23:40.917Z,41.60
2018-07-17T16:26:08.592Z,42.70
2018-07-17T16:28:36.146Z,42.60
2018-07-17T16:31:03.831Z,43.30
2018-07-17T16:33:31.503Z,43.40
2018-07-17T16:35:59.231Z,44.10
2018-07-17T16:38:27.104Z,44.40
2018-07-17T16:40:54.708Z,44.70
2018-07-17T16:43:22.336Z,44.60
2018-07-17T16:48:17.796Z,45.70
2018-07-17T16:50:45.455Z,45.40
2018-07-17T16:53:13.048Z,45.90
2018-07-17T16:55:40.613Z,46.70
2018-07-17T16:58:08.172Z,46.10
2018-07-17T17:00:35.921Z,46.90
2018-07-17T17:03:03.658Z,46.60
2018-07-17T17:05:31.309Z,46.40
2018-07-17T17:07:58.903Z,46.20
2018-07-17T17:12:54.093Z,46.40
2018-07-17T17:15:22.352Z,46.40
2018-07-17T17:17:50.257Z,46.80
2018-07-17T17:20:17.985Z,47.10
2018-07-17T17:22:46.033Z,45.10
2018-07-17T17:25:13.692Z,44.00
2018-07-17T17:27:41.333Z,45.00
2018-07-17T17:30:09.015Z,45.80
2018-07-17T17:32:36.802Z,45.10
2018-07-17T17:35:04.441Z,43.70
2018-07-17T17:37:32.090Z,43.30
2018-07-17T17:42:27.401Z,44.90
2018-07-17T17:44:55.140Z,44.20
2018-07-17T17:49:50.352Z,44.30
2018-07-17T17:52:17.997Z,45.60
2018-07-17T17:55:49.167Z,47.10
2018-07-17T17:58:16.896Z,45.10
2018-07-17T18:03:12.048Z,44.00
2018-07-17T18:05:39.608Z,43.70
2018-07-17T18:08:07.305Z,44.10
2018-07-17T18:10:34.879Z,44.80
2018-07-17T18:13:02.560Z,44.10
2018-07-17T18:15:30.285Z,44.80
2018-07-17T18:17:58.275Z,44.80
2018-07-17T18:20:26.051Z,45.60
2018-07-17T18:22:53.726Z,47.50
2018-07-17T18:25:21.709Z,48.80
2018-07-17T18:27:49.511Z,50.20
2018-07-17T18:30:17.265Z,51.40
2018-07-17T18:32:44.893Z,52.10
2018-07-17T18:35:16.924Z,53.00
2018-07-17T18:37:44.553Z,53.40
2018-07-17T18:40:12.398Z,54.20
2018-07-17T18:42:40.097Z,54.80
2018-07-17T18:45:07.729Z,55.00
2018-07-17T18:47:35.453Z,55.60
2018-07-17T18:50:12.585Z,55.70
2018-07-17T18:52:30.901Z,56.60
2018-07-17T18:54:58.825Z,56.20
2018-07-17T18:57:26.593Z,56.40
2018-07-17T18:59:54.214Z,56.80
2018-07-17T19:02:21.926Z,57.00
2018-07-17T19:04:49.592Z,57.40
2018-07-17T19:07:17.332Z,57.60
2018-07-17T19:09:45.061Z,57.90
2018-07-17T19:12:18.610Z,58.20
2018-07-17T19:14:46.225Z,58.40
2018-07-17T19:17:13.889Z,58.70
2018-07-17T19:19:41.682Z,59.10
2018-07-17T19:22:19.124Z,59.60
2018-07-17T19:24:46.878Z,59.90
2018-07-17T19:27:14.546Z,60.50
2018-07-17T19:29:54.732Z,61.00
2018-07-17T19:32:22.379Z,61.10
2018-07-17T19:37:17.724Z,62.90
2018-07-17T19:39:45.344Z,63.50
2018-07-17T19:42:13.026Z,64.30
2018-07-17T19:47:08.298Z,65.30
2018-07-17T19:49:35.884Z,66.20
2018-07-17T19:52:08.907Z,66.70
2018-07-17T19:57:04.324Z,68.10
2018-07-17T19:59:32.043Z,68.60
2018-07-17T20:01:59.690Z,69.20
2018-07-17T20:04:27.289Z,69.60
2018-07-17T20:06:58.990Z,70.80
2018-07-17T20:09:26.692Z,72.60
2018-07-17T20:11:55.486Z,73.30
2018-07-17T20:14:23.154Z,74.40
2018-07-17T20:16:55.444Z,76.00
2018-07-17T20:19:23.306Z,77.60
2018-07-17T20:21:50.972Z,79.20
2018-07-17T20:24:18.565Z,80.20
2018-07-17T20:26:46.256Z,81.20
2018-07-17T20:29:13.837Z,83.20
2018-07-17T20:31:41.456Z,84.20
2018-07-17T20:34:22.177Z,86.00
2018-07-17T20:36:50.066Z,87.10
2018-07-17T20:39:17.717Z,89.00
2018-07-17T20:41:52.604Z,90.30
2018-07-17T20:44:20.390Z,91.20
2018-07-17T20:46:50.101Z,91.70
2018-07-17T20:49:17.684Z,92.20
2018-07-17T20:51:45.324Z,92.50
2018-07-17T20:54:13.162Z,93.00
2018-07-17T20:59:08.328Z,93.60
2018-07-17T21:01:49.601Z,93.80
2018-07-17T21:04:17.209Z,94.10
2018-07-17T21:06:49.449Z,94.50
2018-07-17T21:09:17.104Z,95.10
2018-07-17T21:11:44.776Z,95.50
2018-07-17T21:14:12.384Z,96.20
2018-07-17T21:16:39.985Z,96.60
2018-07-17T21:19:07.572Z,97.00
2018-07-17T21:21:35.218Z,97.60
2018-07-17T21:24:02.882Z,97.80
2018-07-17T21:26:30.488Z,98.20
2018-07-17T21:28:58.222Z,98.50
2018-07-17T21:31:25.825Z,98.80
2018-07-17T21:33:53.451Z,98.90
2018-07-17T21:36:21.087Z,99.20
2018-07-17T21:38:48.725Z,99.30
2018-07-17T21:41:16.376Z,99.40
2018-07-17T21:46:11.746Z,99.90
2018-07-17T21:48:39.368Z,99.90
2018-07-17T21:51:07.005Z,99.90
2018-07-17T21:53:34.625Z,99.90
2018-07-17T21:56:02.240Z,99.90
2018-07-17T21:58:29.854Z,99.90
2018-07-17T22:00:57.813Z,99.90
2018-07-17T22:03:25.706Z,99.90
2018-07-17T22:05:53.357Z,99.90
2018-07-17T22:08:20.985Z,99.90
2018-07-17T22:10:48.700Z,99.90
2018-07-17T22:13:16.339Z,99.90
2018-07-17T22:15:53.976Z,99.90
2018-07-17T22:18:21.729Z,99.90
2018-07-17T22:21:02.177Z,99.90
2018-07-17T22:23:29.834Z,99.90
2018-07-17T22:25:57.408Z,99.90
2018-07-17T22:28:28.628Z,99.90
2018-07-17T22:30:56.260Z,99.90
2018-07-17T22:33:23.912Z,99.90
2018-07-17T22:35:51.506Z,99.90
2018-07-17T22:38:19.127Z,99.90
2018-07-17T22:40:46.757Z,99.90
2018-07-17T22:43:18.341Z,99.90
2018-07-17T22:48:17.388Z,99.90
2018-07-17T22:50:44.965Z,99.90
2018-07-17T22:53:12.584Z,99.90
2018-07-17T22:55:44.628Z,99.90
2018-07-17T22:58:12.289Z,99.90
2018-07-17T23:00:39.922Z,99.90
2018-07-17T23:03:07.526Z,99.90
2018-07-17T23:05:35.117Z,99.90
2018-07-17T23:08:02.813Z,99.90
2018-07-17T23:10:30.467Z,99.90
2018-07-17T23:12:58.103Z,99.90
2018-07-17T23:15:25.825Z,99.90
2018-07-17T23:17:53.452Z,99.90
2018-07-17T23:20:21.068Z,99.90
2018-07-17T23:22:53.068Z,99.90
2018-07-17T23:25:22.941Z,99.90
2018-07-17T23:27:50.964Z,99.90
2018-07-17T23:30:18.753Z,99.90
2018-07-17T23:32:47.448Z,99.90
2018-07-17T23:35:15.209Z,99.90
2018-07-17T23:37:42.828Z,99.90
2018-07-17T23:40:10.476Z,99.90
2018-07-17T23:45:05.939Z,99.90
2018-07-17T23:47:33.739Z,99.90
2018-07-17T23:50:01.394Z,99.90
2018-07-17T23:52:29.045Z,99.90
2018-07-17T23:54:56.630Z,99.90
2018-07-17T23:57:24.265Z,99.90
2018-07-17T23:59:51.985Z,99.90
